createdAt,value
2018-08-28T00:00:14.892Z,100296.53
2018-08-28T00:02:47.585Z,100292.36
2018-08-28T00:05:22.086Z,100288.13
2018-08-28T00:07:55.114Z,100290.70
2018-08-28T00:10:27.610Z,100286.28
2018-08-28T00:13:02.843Z,100289.39
2018-08-28T00:15:35.823Z,100288.80
2018-08-28T00:18:09.263Z,100292.64
2018-08-28T00:20:41.996Z,100294.39
2018-08-28T00:23:14.588Z,100299.75
2018-08-28T00:25:47.348Z,100301.59
2018-08-28T00:28:20.869Z,100300.26
2018-08-28T00:30:53.623Z,100301.81
2018-08-28T00:33:27.044Z,100303.14
2018-08-28T00:35:59.945Z,100308.22
2018-08-28T00:38:33.185Z,100317.81
2018-08-28T00:41:07.813Z,100316.59
2018-08-28T00:43:41.893Z,100313.33
2018-08-28T00:46:14.809Z,100316.97
2018-08-28T00:48:48.525Z,100309.96
2018-08-28T00:51:21.340Z,100312.80
2018-08-28T00:53:54.024Z,100324.14
2018-08-28T00:56:29.326Z,100318.70
2018-08-28T00:59:04.061Z,100324.38
2018-08-28T01:01:36.561Z,100325.14
2018-08-28T01:04:09.141Z,100322.73
2018-08-28T01:06:41.716Z,100327.98
2018-08-28T01:09:14.321Z,100319.67
2018-08-28T01:11:47.102Z,100321.46
2018-08-28T01:14:19.693Z,100317.87
2018-08-28T01:16:52.345Z,100317.86
2018-08-28T01:19:26.360Z,100317.73
2018-08-28T01:21:59.845Z,100317.60
2018-08-28T01:24:33.865Z,100318.42
2018-08-28T01:27:06.628Z,100318.86
2018-08-28T01:29:40.207Z,100317.56
2018-08-28T01:32:12.772Z,100319.84
2018-08-28T01:34:45.666Z,100318.94
2018-08-28T01:37:18.248Z,100318.94
2018-08-28T01:39:50.741Z,100318.08
2018-08-28T01:42:25.097Z,100320.48
2018-08-28T01:44:57.606Z,100315.63
2018-08-28T01:47:31.475Z,100318.92
2018-08-28T01:50:09.661Z,100318.33
2018-08-28T01:52:42.532Z,100323.64
2018-08-28T01:55:24.538Z,100319.30
2018-08-28T01:57:57.448Z,100324.19
2018-08-28T02:00:40.608Z,100320.84
2018-08-28T02:03:13.537Z,100319.33
2018-08-28T02:05:46.439Z,100320.89
2018-08-28T02:08:19.157Z,100320.00
2018-08-28T02:10:52.835Z,100326.61
2018-08-28T02:13:25.958Z,100324.46
2018-08-28T02:15:58.369Z,100323.11
2018-08-28T02:18:30.969Z,100325.25
2018-08-28T02:21:09.780Z,100323.35
2018-08-28T02:23:42.488Z,100325.86
2018-08-28T02:26:15.828Z,100328.62
2018-08-28T02:28:48.456Z,100330.11
2018-08-28T02:31:31.590Z,100332.46
2018-08-28T02:34:07.779Z,100329.03
2018-08-28T02:39:57.849Z,100332.05
2018-08-28T02:42:30.979Z,100330.20
2018-08-28T02:45:05.481Z,100332.55
2018-08-28T02:47:42.239Z,100330.25
2018-08-28T02:50:15.311Z,100330.72
2018-08-28T02:52:47.757Z,100320.97
2018-08-28T02:58:31.037Z,100331.07
2018-08-28T03:01:03.828Z,100333.55
2018-08-28T03:03:36.582Z,100329.08
2018-08-28T03:06:09.188Z,100335.34
2018-08-28T03:08:43.445Z,100331.73
2018-08-28T03:11:15.855Z,100340.17
2018-08-28T03:13:48.385Z,100337.39
2018-08-28T03:16:40.881Z,100338.34
2018-08-28T03:19:13.347Z,100336.41
2018-08-28T03:21:46.214Z,100337.78
2018-08-28T03:24:20.376Z,100348.91
2018-08-28T03:26:52.969Z,100340.78
2018-08-28T03:29:25.540Z,100344.81
2018-08-28T03:32:14.890Z,100342.86
2018-08-28T03:34:57.753Z,100341.52
2018-08-28T03:37:30.299Z,100343.86
2018-08-28T03:40:30.977Z,100342.52
2018-08-28T03:43:14.358Z,100345.69
2018-08-28T03:45:46.937Z,100350.24
2018-08-28T03:48:19.999Z,100349.78
2018-08-28T03:54:03.634Z,100354.75
2018-08-28T03:56:37.572Z,100356.39
2018-08-28T03:59:12.376Z,100361.36
2018-08-28T04:01:45.227Z,100364.90
2018-08-28T04:04:20.337Z,100367.67
2018-08-28T04:10:04.240Z,100366.55
2018-08-28T04:12:37.080Z,100363.14
2018-08-28T04:15:23.517Z,100360.78
2018-08-28T04:18:18.135Z,100364.78
2018-08-28T04:24:00.693Z,100372.08
2018-08-28T04:26:44.997Z,100370.31
2018-08-28T04:29:18.752Z,100372.50
2018-08-28T04:31:51.588Z,100375.59
2018-08-28T04:34:24.117Z,100375.91
2018-08-28T04:36:56.961Z,100374.19
2018-08-28T04:39:29.476Z,100375.34
2018-08-28T04:42:02.229Z,100377.72
2018-08-28T04:44:35.081Z,100376.91
2018-08-28T04:47:07.916Z,100385.13
2018-08-28T04:49:40.340Z,100386.99
2018-08-28T04:52:13.169Z,100388.92
2018-08-28T04:54:46.808Z,100390.80
2018-08-28T04:57:19.418Z,100393.72
2018-08-28T04:59:52.361Z,100395.52
2018-08-28T05:02:33.001Z,100404.03
2018-08-28T05:05:09.061Z,100404.00
2018-08-28T05:07:42.551Z,100403.57
2018-08-28T05:10:15.141Z,100398.91
2018-08-28T05:12:48.589Z,100408.82
2018-08-28T05:15:21.588Z,100409.13
2018-08-28T05:17:54.357Z,100406.75
2018-08-28T05:20:28.501Z,100410.26
2018-08-28T05:23:04.001Z,100407.95
2018-08-28T05:25:36.553Z,100414.35
2018-08-28T05:28:09.498Z,100412.48
2018-08-28T05:30:42.347Z,100416.78
2018-08-28T05:33:15.107Z,100418.81
2018-08-28T05:35:48.995Z,100420.05
2018-08-28T05:38:22.524Z,100422.33
2018-08-28T05:40:56.148Z,100423.58
2018-08-28T05:43:28.784Z,100423.81
2018-08-28T05:46:03.070Z,100416.59
2018-08-28T05:48:36.885Z,100418.11
2018-08-28T05:51:09.649Z,100423.61
2018-08-28T05:53:42.712Z,100420.70
2018-08-28T05:56:15.442Z,100422.50
2018-08-28T05:58:49.089Z,100425.39
2018-08-28T06:01:24.307Z,100430.84
2018-08-28T06:03:57.352Z,100431.96
2018-08-28T06:06:30.148Z,100440.55
2018-08-28T06:09:05.212Z,100435.52
2018-08-28T06:11:38.692Z,100437.36
2018-08-28T06:14:13.368Z,100437.80
2018-08-28T06:16:48.564Z,100437.53
2018-08-28T06:19:23.239Z,100444.01
2018-08-28T06:21:58.708Z,100444.80
2018-08-28T06:24:31.600Z,100442.89
2018-08-28T06:27:05.608Z,100451.07
2018-08-28T06:29:38.396Z,100451.61
2018-08-28T06:32:12.423Z,100455.59
2018-08-28T06:34:45.296Z,100459.59
2018-08-28T06:37:19.014Z,100458.92
2018-08-28T06:39:52.352Z,100460.56
2018-08-28T06:42:25.013Z,100457.16
2018-08-28T06:44:58.089Z,100459.45
2018-08-28T06:47:34.889Z,100464.00
2018-08-28T06:50:09.290Z,100461.98
2018-08-28T06:52:42.033Z,100463.27
2018-08-28T06:55:16.696Z,100466.52
2018-08-28T06:57:49.232Z,100471.70
2018-08-28T07:00:23.632Z,100469.58
2018-08-28T07:02:57.283Z,100472.17
2018-08-28T07:05:31.358Z,100475.13
2018-08-28T07:08:04.603Z,100476.19
2018-08-28T07:10:37.302Z,100478.66
2018-08-28T07:13:10.649Z,100476.53
2018-08-28T07:15:44.626Z,100476.70
2018-08-28T07:18:17.253Z,100477.13
2018-08-28T07:27:32.805Z,100481.69
2018-08-28T07:30:07.901Z,100473.96
2018-08-28T07:32:42.753Z,100470.87
2018-08-28T07:35:16.194Z,100468.84
2018-08-28T07:37:48.666Z,100476.99
2018-08-28T07:40:22.553Z,100478.91
2018-08-28T07:42:55.046Z,100473.41
2018-08-28T07:45:27.927Z,100476.36
2018-08-28T07:48:02.988Z,100473.08
2018-08-28T07:50:35.442Z,100475.60
2018-08-28T07:53:09.777Z,100482.81
2018-08-28T07:55:46.840Z,100480.52
2018-08-28T07:58:19.836Z,100475.27
2018-08-28T08:00:53.197Z,100477.83
2018-08-28T08:03:25.974Z,100475.76
2018-08-28T08:06:01.075Z,100472.95
2018-08-28T08:08:34.973Z,100480.03
2018-08-28T08:11:17.272Z,100484.92
2018-08-28T08:13:51.977Z,100485.37
2018-08-28T08:16:24.657Z,100483.66
2018-08-28T08:18:57.693Z,100488.23
2018-08-28T08:21:30.197Z,100487.53
2018-08-28T08:24:05.042Z,100489.88
2018-08-28T08:26:38.510Z,100488.47
2018-08-28T08:29:11.737Z,100483.27
2018-08-28T08:31:48.176Z,100484.09
2018-08-28T08:34:21.197Z,100486.28
2018-08-28T08:36:55.249Z,100485.72
2018-08-28T08:39:30.896Z,100490.34
2018-08-28T08:42:05.474Z,100488.98
2018-08-28T08:44:39.278Z,100487.97
2018-08-28T08:47:14.638Z,100491.57
2018-08-28T08:49:47.540Z,100483.98
2018-08-28T08:52:20.438Z,100474.59
2018-08-28T08:54:53.108Z,100473.41
2018-08-28T08:57:26.245Z,100470.55
2018-08-28T09:00:00.009Z,100472.83
2018-08-28T09:02:40.474Z,100472.20
2018-08-28T09:05:14.454Z,100472.06
2018-08-28T09:07:53.972Z,100467.28
2018-08-28T09:10:32.350Z,100472.02
2018-08-28T09:13:05.567Z,100472.02
2018-08-28T09:15:43.984Z,100471.33
2018-08-28T09:18:20.153Z,100470.35
2018-08-28T09:20:54.845Z,100468.22
2018-08-28T09:23:34.986Z,100470.87
2018-08-28T09:26:08.741Z,100461.80
2018-08-28T09:28:50.689Z,100465.11
2018-08-28T09:31:30.278Z,100462.64
2018-08-28T09:34:05.731Z,100459.62
2018-08-28T09:36:40.669Z,100455.54
2018-08-28T09:39:16.384Z,100455.97
2018-08-28T09:41:49.865Z,100451.05
2018-08-28T09:44:26.214Z,100448.83
2018-08-28T09:47:00.369Z,100442.54
2018-08-28T09:49:33.853Z,100448.30
2018-08-28T09:52:13.253Z,100443.90
2018-08-28T09:54:46.527Z,100452.27
2018-08-28T09:57:19.021Z,100450.67
2018-08-28T09:59:53.533Z,100438.02
2018-08-28T10:02:34.105Z,100435.74
2018-08-28T10:05:07.979Z,100436.98
2018-08-28T10:07:42.973Z,100437.59
2018-08-28T10:10:15.722Z,100437.11
2018-08-28T10:12:48.425Z,100428.88
2018-08-28T10:15:21.530Z,100430.90
2018-08-28T10:17:55.240Z,100429.48
2018-08-28T10:20:28.453Z,100427.39
2018-08-28T10:23:03.463Z,100421.66
2018-08-28T10:25:38.649Z,100419.64
2018-08-28T10:28:13.328Z,100419.04
2018-08-28T10:30:47.809Z,100418.73
2018-08-28T10:33:22.727Z,100416.91
2018-08-28T10:35:58.714Z,100416.16
2018-08-28T10:38:34.583Z,100420.88
2018-08-28T10:41:08.750Z,100411.09
2018-08-28T10:43:43.735Z,100407.84
2018-08-28T10:46:20.937Z,100404.94
2018-08-28T10:48:54.294Z,100404.31
2018-08-28T10:51:31.160Z,100400.41
2018-08-28T10:54:03.741Z,100391.00
2018-08-28T10:56:39.184Z,100398.18
2018-08-28T10:59:14.708Z,100397.16
2018-08-28T11:01:55.501Z,100393.66
2018-08-28T11:04:28.019Z,100398.53
2018-08-28T11:07:03.230Z,100393.41
2018-08-28T11:09:37.850Z,100394.25
2018-08-28T11:12:11.181Z,100396.69
2018-08-28T11:14:46.980Z,100395.36
2018-08-28T11:17:21.085Z,100394.08
2018-08-28T11:19:56.329Z,100394.88
2018-08-28T11:22:30.575Z,100390.81
2018-08-28T11:25:05.749Z,100391.44
2018-08-28T11:27:39.198Z,100384.44
2018-08-28T11:30:15.116Z,100387.70
2018-08-28T11:32:55.242Z,100391.09
2018-08-28T11:35:29.446Z,100389.29
2018-08-28T11:38:02.614Z,100388.80
2018-08-28T11:40:39.411Z,100386.41
2018-08-28T11:43:16.614Z,100387.53
2018-08-28T11:45:53.989Z,100390.81
2018-08-28T11:48:28.462Z,100387.60
2018-08-28T12:45:39.314Z,100350.16
2018-08-28T12:48:14.082Z,100338.02
2018-08-28T12:50:50.759Z,100338.14
2018-08-28T12:53:31.383Z,100328.45
2018-08-28T12:56:05.186Z,100321.63
2018-08-28T12:58:41.632Z,100325.58
2018-08-28T13:02:10.258Z,100320.87
2018-08-28T13:05:27.929Z,100316.91
2018-08-28T13:08:14.322Z,100311.69
2018-08-28T13:10:50.409Z,100313.27
2018-08-28T13:13:29.757Z,100308.17
2018-08-28T13:16:03.945Z,100300.25
2018-08-28T13:18:38.597Z,100301.41
2018-08-28T13:21:13.482Z,100300.52
2018-08-28T13:23:49.241Z,100293.08
2018-08-28T13:26:24.058Z,100289.66
2018-08-28T13:42:28.285Z,100271.63
2018-08-28T13:45:08.046Z,100269.46
2018-08-28T13:58:09.238Z,100256.98
2018-08-28T14:00:46.382Z,100259.47
2018-08-28T14:03:21.614Z,100259.28
2018-08-28T14:05:56.913Z,100252.73
2018-08-28T14:08:31.445Z,100252.25
2018-08-28T14:11:05.456Z,100250.31
2018-08-28T14:13:59.069Z,100247.95
2018-08-28T14:16:44.957Z,100251.87
2018-08-28T14:19:21.152Z,100252.34
2018-08-28T14:21:53.578Z,100248.03
2018-08-28T14:24:29.359Z,100249.29
2018-08-28T14:27:03.558Z,100253.96
2018-08-28T14:29:37.023Z,100239.25
2018-08-28T14:32:12.225Z,100242.17
2018-08-28T14:34:48.233Z,100239.62
2018-08-28T14:37:37.988Z,100240.91
2018-08-28T14:40:11.662Z,100233.04
2018-08-28T14:42:51.778Z,100231.66
2018-08-28T14:45:30.773Z,100230.73
2018-08-28T14:48:04.906Z,100228.98
2018-08-28T14:50:41.319Z,100228.95
2018-08-28T14:53:17.290Z,100223.59
2018-08-28T14:55:53.041Z,100218.67
2018-08-28T14:58:29.621Z,100216.10
2018-08-28T15:01:03.626Z,100214.11
2018-08-28T15:03:43.088Z,100206.98
2018-08-28T15:06:18.021Z,100198.86
2018-08-28T15:08:53.782Z,100186.60
2018-08-28T15:11:31.666Z,100202.14
2018-08-28T15:14:05.117Z,100202.08
2018-08-28T15:16:39.465Z,100200.18
2018-08-28T15:19:12.720Z,100192.70
2018-08-28T15:21:46.490Z,100192.45
2018-08-28T15:24:22.514Z,100190.81
2018-08-28T15:26:55.237Z,100187.48
2018-08-28T15:29:31.195Z,100189.31
2018-08-28T15:32:04.852Z,100191.36
2018-08-28T15:34:41.201Z,100188.53
2018-08-28T15:37:15.872Z,100185.48
2018-08-28T15:39:49.424Z,100181.94
2018-08-28T15:42:23.104Z,100185.96
2018-08-28T15:44:58.153Z,100184.59
2018-08-28T15:47:31.782Z,100180.27
2018-08-28T15:50:07.929Z,100179.44
2018-08-28T15:52:41.574Z,100176.38
2018-08-28T15:55:19.847Z,100177.81
2018-08-28T15:57:58.523Z,100179.39
2018-08-28T16:00:33.850Z,100174.74
2018-08-28T16:03:13.776Z,100167.70
2018-08-28T16:05:50.755Z,100170.15
2018-08-28T16:08:30.572Z,100164.73
2018-08-28T16:11:04.028Z,100168.30
2018-08-28T16:13:40.485Z,100166.84
2018-08-28T16:16:15.782Z,100164.98
2018-08-28T16:18:50.069Z,100158.66
2018-08-28T16:21:37.700Z,100152.89
2018-08-28T16:24:13.772Z,100153.44
2018-08-28T16:26:46.340Z,100151.31
2018-08-28T16:29:20.378Z,100147.88
2018-08-28T16:31:53.993Z,100144.59
2018-08-28T16:34:27.645Z,100142.70
2018-08-28T16:37:01.848Z,100139.34
2018-08-28T16:39:36.743Z,100134.64
2018-08-28T16:42:10.312Z,100135.75
2018-08-28T16:44:57.813Z,100126.97
2018-08-28T16:47:31.969Z,100123.78
2018-08-28T16:50:04.669Z,100126.91
2018-08-28T16:52:39.574Z,100122.64
2018-08-28T16:55:16.373Z,100115.80
2018-08-28T16:57:51.132Z,100108.65
2018-08-28T17:00:29.854Z,100108.58
2018-08-28T17:03:04.233Z,100101.84
2018-08-28T17:05:39.042Z,100108.26
2018-08-28T17:08:21.107Z,100100.59
2018-08-28T17:10:57.926Z,100098.86
2018-08-28T17:13:53.241Z,100093.18
2018-08-28T17:16:39.986Z,100087.18
2018-08-28T17:19:15.038Z,100091.06
2018-08-28T17:21:59.590Z,100084.87
2018-08-28T17:27:10.422Z,100088.17
2018-08-28T17:29:47.520Z,100079.88
2018-08-28T17:32:20.414Z,100084.02
2018-08-28T17:34:53.841Z,100078.55
2018-08-28T17:37:34.066Z,100081.80
2018-08-28T17:40:08.607Z,100078.98
2018-08-28T17:42:43.772Z,100079.27
2018-08-28T17:45:18.793Z,100079.09
2018-08-28T17:47:53.822Z,100083.12
2018-08-28T17:50:31.296Z,100080.23
2018-08-28T17:53:05.381Z,100079.41
2018-08-28T17:55:39.093Z,100080.70
2018-08-28T17:58:18.627Z,100082.98
2018-08-28T18:00:53.345Z,100086.81
2018-08-28T18:03:29.968Z,100088.63
2018-08-28T18:06:02.635Z,100086.48
2018-08-28T18:08:37.273Z,100083.75
2018-08-28T18:11:15.290Z,100082.25
2018-08-28T18:13:49.727Z,100082.67
2018-08-28T18:16:24.212Z,100077.92
2018-08-28T18:19:02.394Z,100090.66
2018-08-28T18:21:35.522Z,100093.12
2018-08-28T18:24:11.107Z,100094.63
2018-08-28T18:26:45.164Z,100091.70
2018-08-28T18:29:23.000Z,100086.34
2018-08-28T18:31:59.464Z,100085.38
2018-08-28T18:34:37.989Z,100081.80
2018-08-28T18:37:10.982Z,100086.62
2018-08-28T18:39:45.061Z,100086.09
2018-08-28T18:42:19.759Z,100084.17
2018-08-28T18:44:54.648Z,100085.09
2018-08-28T18:47:31.698Z,100081.16
2018-08-28T18:50:06.393Z,100085.00
2018-08-28T18:52:41.028Z,100081.20
2018-08-28T18:55:14.450Z,100080.97
2018-08-28T18:57:47.297Z,100082.59
2018-08-28T19:00:22.709Z,100084.53
2018-08-28T19:03:00.954Z,100084.13
2018-08-28T19:05:35.118Z,100089.84
2018-08-28T19:08:11.265Z,100087.87
2018-08-28T19:10:49.353Z,100084.28
2018-08-28T19:13:23.726Z,100085.17
2018-08-28T19:16:01.159Z,100088.70
2018-08-28T19:18:39.217Z,100090.89
2018-08-28T19:21:13.208Z,100095.30
2018-08-28T19:23:51.429Z,100091.58
2018-08-28T19:26:32.438Z,100085.37
2018-08-28T19:29:07.918Z,100083.00
2018-08-28T19:31:49.926Z,100086.16
2018-08-28T19:34:28.596Z,100084.00
2018-08-28T19:37:09.893Z,100084.00
2018-08-28T19:39:44.167Z,100085.02
2018-08-28T19:42:18.645Z,100080.45
2018-08-28T19:44:53.940Z,100082.59
2018-08-28T19:47:28.281Z,100079.75
2018-08-28T19:50:01.623Z,100081.41
2018-08-28T19:52:36.769Z,100077.09
2018-08-28T19:55:14.287Z,100080.86
2018-08-28T19:57:52.070Z,100079.17
2018-08-28T20:00:27.625Z,100079.43
2018-08-28T20:03:03.231Z,100075.89
2018-08-28T20:05:41.428Z,100071.11
2018-08-28T20:08:17.728Z,100069.84
2018-08-28T20:10:57.216Z,100072.50
2018-08-28T20:13:32.612Z,100071.00
2018-08-28T20:16:14.962Z,100069.56
2018-08-28T20:18:50.245Z,100068.39
2018-08-28T20:21:24.215Z,100070.17
2018-08-28T20:23:57.176Z,100062.97
2018-08-28T20:26:32.835Z,100067.05
2018-08-28T20:29:08.067Z,100070.77
2018-08-28T20:31:44.983Z,100061.15
2018-08-28T20:34:21.243Z,100064.00
2018-08-28T20:36:55.071Z,100056.69
2018-08-28T20:39:44.911Z,100055.86
2018-08-28T20:42:26.463Z,100054.85
2018-08-28T20:45:05.475Z,100052.44
2018-08-28T20:47:40.962Z,100046.78
2018-08-28T20:50:22.741Z,100043.59
2018-08-28T20:52:55.810Z,100040.20
2018-08-28T20:55:29.800Z,100038.23
2018-08-28T20:58:07.630Z,100035.01
2018-08-28T21:00:41.631Z,100028.61
2018-08-28T21:03:14.496Z,100026.73
2018-08-28T21:05:48.660Z,100025.49
2018-08-28T21:08:22.607Z,100020.66
2018-08-28T21:10:56.981Z,100021.06
2018-08-28T21:13:30.467Z,100017.33
2018-08-28T21:16:03.356Z,100017.19
2018-08-28T21:18:35.865Z,100016.51
2018-08-28T21:21:09.969Z,100016.02
2018-08-28T21:23:45.460Z,100014.26
2018-08-28T21:26:17.941Z,100010.75
2018-08-28T21:28:53.505Z,100007.86
2018-08-28T21:31:27.047Z,100009.21
2018-08-28T21:34:00.313Z,100006.66
2018-08-28T21:36:42.786Z,100004.56
2018-08-28T21:39:19.833Z,100003.32
2018-08-28T21:41:55.540Z,99999.41
2018-08-28T21:44:30.436Z,100001.04
2018-08-28T21:47:04.624Z,99995.11
2018-08-28T21:49:37.657Z,99986.30
2018-08-28T21:52:12.522Z,99988.56
2018-08-28T21:54:46.746Z,99988.16
2018-08-28T21:57:21.805Z,99988.48
2018-08-28T21:59:59.360Z,99985.80
2018-08-28T22:02:37.206Z,99986.07
2018-08-28T22:05:10.147Z,99985.74
2018-08-28T22:07:45.115Z,99987.33
2018-08-28T22:10:19.312Z,99988.12
2018-08-28T22:12:53.489Z,99986.29
2018-08-28T22:15:26.978Z,99984.41
2018-08-28T22:18:03.424Z,99982.89
2018-08-28T22:20:36.253Z,99983.20
2018-08-28T22:23:10.626Z,99979.59
2018-08-28T22:25:44.308Z,99977.42
2018-08-28T22:28:18.028Z,99974.55
2018-08-28T22:30:53.453Z,99972.49
2018-08-28T22:33:26.802Z,99979.41
2018-08-28T22:35:59.699Z,99979.13
2018-08-28T22:38:32.695Z,99977.06
2018-08-28T22:41:05.560Z,99974.64
2018-08-28T22:43:38.904Z,99973.77
2018-08-28T22:46:12.284Z,99980.59
2018-08-28T22:48:46.570Z,99983.14
2018-08-28T22:51:20.298Z,99984.34
2018-08-28T22:53:53.254Z,99978.33
2018-08-28T22:56:26.313Z,99976.47
2018-08-28T22:58:58.865Z,99969.66
2018-08-28T23:01:33.445Z,99967.97
2018-08-28T23:04:07.471Z,99965.58
2018-08-28T23:06:50.142Z,99958.31
2018-08-28T23:09:24.181Z,99965.03
2018-08-28T23:11:59.140Z,99964.48
2018-08-28T23:14:32.993Z,99959.43
2018-08-28T23:17:10.571Z,99960.71
2018-08-28T23:19:45.783Z,99954.76
2018-08-28T23:22:19.583Z,99946.39
2018-08-28T23:24:53.736Z,99941.85
2018-08-28T23:27:26.741Z,99942.89
2018-08-28T23:30:00.351Z,99947.96
2018-08-28T23:32:34.960Z,99949.69
2018-08-28T23:35:08.160Z,99951.58
2018-08-28T23:37:40.745Z,99948.73
2018-08-28T23:40:17.707Z,99944.66
2018-08-28T23:42:52.020Z,99939.25
2018-08-28T23:45:26.477Z,99940.48
2018-08-28T23:47:59.396Z,99939.03
2018-08-28T23:50:32.723Z,99935.59
2018-08-28T23:53:05.196Z,99938.27
2018-08-28T23:55:39.048Z,99942.90
2018-08-28T23:58:11.607Z,99938.22
